Time;durP1;ratioP1;P1;durP2;ratioP2;P2;SDS_P1;SDS_P2;PMS_P1;PMS_P2;Temp;Humidity;BMP_temperature;BMP_pressure;BME280_temperature;BME280_humidity;BME280_pressure;Samples;Min_cycle;Max_cycle;Signal;HPM_P1;HPM_P2
2020/12/09 00:00:09;;;;;;;9.07;6.20;;;4.60;99.90;;;4.25;81.93;100737.59;4164715;28;20389;-74
2020/12/09 00:02:10;;;;;;;11.38;6.30;;;4.60;99.90;;;4.19;82.43;100746.72;4168759;28;20033;-74
2020/12/09 00:04:12;;;;;;;9.88;5.28;;;4.50;99.90;;;4.13;82.52;100739.34;4153757;28;20026;-74
2020/12/09 00:06:13;;;;;;;7.22;4.57;;;4.50;99.90;;;4.18;81.74;100733.78;4152799;28;20033;-74
2020/12/09 00:08:14;;;;;;;7.20;4.70;;;4.50;99.90;;;4.13;82.58;100743.72;4169043;28;20053;-74
2020/12/09 00:10:15;;;;;;;9.60;5.40;;;4.50;99.90;;;4.09;82.82;100743.13;4153745;28;20604;-74
2020/12/09 00:12:16;;;;;;;9.02;5.00;;;4.50;99.90;;;3.96;82.69;100724.13;4168886;28;20030;-74
2020/12/09 00:14:17;;;;;;;5.75;4.25;;;4.50;99.90;;;3.97;83.16;100741.44;4152518;28;20080;-74
2020/12/09 00:16:19;;;;;;;6.45;4.28;;;4.40;99.90;;;3.85;83.75;100740.56;4153535;28;20058;-74
2020/12/09 00:18:20;;;;;;;5.78;5.13;;;4.40;99.90;;;3.97;82.96;100751.91;4155899;28;20039;-74
2020/12/09 00:20:21;;;;;;;8.55;4.68;;;4.40;99.90;;;3.96;82.93;100745.00;4153828;28;20045;-74
2020/12/09 00:22:23;;;;;;;7.35;5.85;;;4.40;99.90;;;3.90;84.15;100756.72;4169003;28;20032;-74
2020/12/09 00:24:24;;;;;;;4.90;3.83;;;4.30;99.90;;;3.79;83.36;100746.22;4168653;28;20108;-74
2020/12/09 00:26:27;;;;;;;5.75;4.40;;;4.30;99.90;;;3.92;83.74;100749.59;4168675;28;20128;-74
2020/12/09 00:28:28;;;;;;;6.90;4.25;;;4.20;99.90;;;3.96;84.88;100749.38;4153698;28;20022;-74
2020/12/09 00:30:29;;;;;;;7.35;4.25;;;4.30;99.90;;;3.89;85.03;100746.38;4153263;28;20519;-74
2020/12/09 00:32:30;;;;;;;5.97;4.18;;;4.30;99.90;;;3.89;84.49;100744.63;4156536;28;20500;-74
2020/12/09 00:34:31;;;;;;;7.60;4.90;;;4.30;99.90;;;3.94;84.31;100746.91;4153693;28;20026;-74
2020/12/09 00:36:32;;;;;;;6.47;4.60;;;4.30;99.90;;;4.01;83.94;100748.09;4153562;28;20108;-74
2020/12/09 00:38:33;;;;;;;6.22;4.68;;;4.30;99.90;;;3.97;83.98;100746.66;4153400;28;20034;-74
2020/12/09 00:40:35;;;;;;;9.30;5.32;;;4.30;99.90;;;4.03;83.14;100735.78;4168560;28;20089;-74
2020/12/09 00:42:36;;;;;;;4.97;4.30;;;4.40;99.90;;;3.95;83.78;100740.72;4153305;28;20113;-74
2020/12/09 00:44:37;;;;;;;8.60;4.30;;;4.40;99.90;;;3.90;83.49;100732.41;4168543;28;20393;-74
2020/12/09 00:46:38;;;;;;;7.60;4.90;;;4.40;99.90;;;3.95;83.37;100727.66;4153125;28;20034;-74
2020/12/09 00:48:39;;;;;;;8.40;4.20;;;4.40;99.90;;;3.99;83.78;100739.56;4168419;28;20524;-74
2020/12/09 00:51:17;;;;;;;7.10;4.32;;;4.40;99.90;;;4.02;84.16;100728.03;4152309;28;20034;-74
2020/12/09 00:53:18;;;;;;;8.75;4.38;;;4.50;99.90;;;4.11;84.08;100729.97;4151727;28;20030;-74
2020/12/09 00:55:19;;;;;;;7.05;3.72;;;4.60;99.90;;;4.09;84.69;100730.06;4152943;28;20057;-74
2020/12/09 00:57:24;;;;;;;9.13;4.93;;;4.60;99.90;;;4.14;84.35;100745.41;4150389;28;20612;-74
2020/12/09 00:59:24;;;;;;;5.05;3.40;;;4.60;99.90;;;4.25;83.86;100727.97;4143191;28;20493;-74
2020/12/09 01:01:25;;;;;;;6.72;3.63;;;4.70;99.90;;;4.35;83.72;100742.00;4167750;28;20083;-74
2020/12/09 01:03:26;;;;;;;4.90;3.63;;;4.80;99.90;;;4.24;84.78;100728.91;4151623;28;20097;-74
2020/12/09 01:05:27;;;;;;;8.20;3.75;;;4.80;99.90;;;4.29;84.85;100736.41;4151476;28;20030;-74
2020/12/09 01:07:29;;;;;;;4.18;3.38;;;4.90;99.90;;;4.45;84.62;100739.50;4152945;28;20112;-75
2020/12/09 01:09:29;;;;;;;7.32;3.40;;;4.90;99.90;;;4.56;84.05;100726.47;4167924;28;20036;-75
2020/12/09 01:11:30;;;;;;;4.90;2.83;;;5.00;99.90;;;4.46;84.09;100736.81;4167616;28;20517;-74
2020/12/09 01:13:33;;;;;;;5.28;2.92;;;5.00;99.90;;;4.50;84.25;100739.19;4151444;28;20085;-75
2020/12/09 01:15:34;;;;;;;5.85;3.33;;;5.00;99.90;;;4.65;84.20;100732.78;4151367;28;20029;-75
2020/12/09 01:17:36;;;;;;;4.38;3.15;;;5.00;99.90;;;4.70;83.33;100735.84;4135261;28;20058;-75
2020/12/09 01:19:37;;;;;;;3.30;3.00;;;5.00;99.90;;;4.68;83.56;100727.31;4151337;28;20038;-74
2020/12/09 01:21:38;;;;;;;4.20;2.63;;;5.10;99.90;;;4.62;83.49;100730.41;4151414;28;20092;-74
2020/12/09 01:23:38;;;;;;;7.15;2.72;;;5.00;99.90;;;4.52;83.69;100732.88;4151445;28;20041;-74
2020/12/09 01:25:39;;;;;;;4.80;3.22;;;5.00;99.90;;;4.56;84.26;100743.94;4151641;28;20025;-74
2020/12/09 01:27:40;;;;;;;5.40;3.17;;;4.90;99.90;;;4.69;83.29;100739.44;4152582;28;20026;-74
2020/12/09 01:29:41;;;;;;;4.82;2.45;;;5.00;99.90;;;4.80;83.53;100742.03;4152528;28;20601;-74
2020/12/09 01:31:42;;;;;;;5.25;2.78;;;5.10;99.90;;;4.82;83.02;100735.75;4166770;28;20036;-74
2020/12/09 01:33:43;;;;;;;4.97;2.60;;;5.10;99.90;;;4.79;83.55;100738.59;4167366;28;20113;-74
2020/12/09 01:35:44;;;;;;;3.50;2.42;;;5.20;99.90;;;4.83;83.19;100742.63;4167598;28;20421;-74
2020/12/09 01:37:45;;;;;;;3.08;2.53;;;5.20;99.90;;;4.81;83.59;100741.91;4151314;28;20030;-74
2020/12/09 01:39:46;;;;;;;4.95;2.90;;;5.20;99.90;;;4.79;83.34;100732.53;4151290;28;20042;-74
2020/12/09 01:41:48;;;;;;;5.50;2.70;;;5.20;99.90;;;4.74;83.57;100743.34;4167538;28;20112;-74
2020/12/09 01:43:50;;;;;;;3.55;2.60;;;5.20;99.90;;;4.81;83.41;100743.69;4167454;28;20021;-74
2020/12/09 01:45:51;;;;;;;4.38;2.28;;;5.20;99.90;;;4.81;83.19;100744.53;4150762;28;20022;-74
2020/12/09 01:47:52;;;;;;;4.18;2.88;;;5.20;99.90;;;4.81;83.81;100743.69;4152542;28;20541;-74
2020/12/09 01:49:53;;;;;;;4.18;2.60;;;5.10;99.90;;;4.71;84.56;100743.59;4167480;28;20053;-74
2020/12/09 01:51:54;;;;;;;3.65;3.10;;;5.10;99.90;;;4.73;84.08;100743.47;4167252;28;20029;-74
2020/12/09 01:53:58;;;;;;;3.88;3.17;;;5.20;99.90;;;4.60;84.12;100737.53;4150956;28;20497;-74
2020/12/09 01:55:59;;;;;;;3.45;3.15;;;5.10;99.90;;;4.43;85.00;100733.59;4134784;28;20393;-74
2020/12/09 01:58:00;;;;;;;4.05;2.97;;;5.00;99.90;;;4.46;84.51;100739.41;4137171;28;20358;-74
2020/12/09 02:00:01;;;;;;;5.45;3.20;;;5.00;99.90;;;4.18;85.81;100741.63;4147115;28;20117;-74
2020/12/09 02:02:03;;;;;;;5.55;2.97;;;4.90;99.90;;;4.22;85.73;100743.88;4166808;28;20053;-74
2020/12/09 02:04:04;;;;;;;6.03;3.58;;;4.80;99.90;;;4.21;86.28;100734.38;4167108;28;20022;-74
2020/12/09 02:06:05;;;;;;;4.30;2.85;;;4.80;99.90;;;4.25;85.87;100741.03;4150944;28;20026;-74
2020/12/09 02:08:06;;;;;;;5.40;2.67;;;4.80;99.90;;;4.41;84.82;100740.72;4134438;28;20038;-74
2020/12/09 02:10:08;;;;;;;4.22;3.00;;;4.70;99.90;;;4.38;84.81;100736.56;4151845;28;20107;-75
2020/12/09 02:12:10;;;;;;;3.85;2.85;;;4.80;99.90;;;4.33;85.54;100743.09;4151001;28;20033;-75
2020/12/09 02:14:11;;;;;;;4.88;2.50;;;4.80;99.90;;;4.34;84.90;100747.34;4150875;28;20045;-74
2020/12/09 02:16:18;;;;;;;3.70;2.85;;;4.70;99.90;;;4.29;85.86;100758.16;4166855;28;20521;-74
2020/12/09 02:18:19;;;;;;;6.40;3.28;;;4.70;99.90;;;4.27;86.30;100754.78;4166299;28;20112;-74
2020/12/09 02:20:20;;;;;;;4.72;2.65;;;4.70;99.90;;;4.34;85.61;100750.78;4166970;28;20025;-74
2020/12/09 02:22:21;;;;;;;5.50;3.30;;;4.70;99.90;;;4.30;86.38;100753.75;4151188;28;20022;-74
2020/12/09 02:24:22;;;;;;;6.28;3.70;;;4.70;99.90;;;4.42;85.64;100756.25;4151843;28;20022;-74
2020/12/09 02:26:23;;;;;;;4.80;2.90;;;4.80;99.90;;;4.50;85.04;100755.69;4166925;28;20509;-74
2020/12/09 02:28:24;;;;;;;5.72;3.55;;;4.80;99.90;;;4.55;85.13;100769.22;4151946;28;20401;-74
2020/12/09 02:30:25;;;;;;;4.85;2.95;;;4.90;99.90;;;4.55;85.49;100757.94;4166764;28;20038;-74
2020/12/09 02:32:26;;;;;;;5.50;3.67;;;4.90;99.90;;;4.54;85.08;100757.09;4165730;28;20026;-74
2020/12/09 02:34:27;;;;;;;7.75;3.25;;;4.90;99.90;;;4.35;85.92;100768.13;4150496;28;20026;-74
2020/12/09 02:36:28;;;;;;;6.05;3.10;;;4.90;99.90;;;4.35;86.64;100762.91;4150744;28;20075;-74
2020/12/09 02:38:28;;;;;;;6.35;2.75;;;4.90;99.90;;;4.29;86.19;100771.19;4150547;28;20033;-74
2020/12/09 02:40:29;;;;;;;6.53;3.53;;;4.90;99.90;;;4.38;85.76;100773.13;4162020;28;20018;-74
2020/12/09 02:42:30;;;;;;;6.53;3.20;;;4.80;99.90;;;4.25;86.70;100776.75;4134072;28;20031;-74
2020/12/09 02:44:32;;;;;;;6.53;3.53;;;4.80;99.90;;;4.30;86.69;100780.69;4152107;28;20029;-74
2020/12/09 02:46:33;;;;;;;6.75;3.20;;;4.80;99.90;;;4.07;87.70;100770.28;4151826;28;20400;-74
2020/12/09 02:48:34;;;;;;;4.55;3.20;;;4.80;99.90;;;3.96;87.98;100773.69;4167215;28;20057;-74
2020/12/09 02:50:34;;;;;;;8.00;4.15;;;4.80;99.90;;;4.10;87.58;100776.13;4166927;28;20489;-74
2020/12/09 02:52:35;;;;;;;5.88;3.40;;;4.70;99.90;;;4.06;87.77;100785.09;4150860;28;20037;-74
2020/12/09 02:54:36;;;;;;;6.20;4.10;;;4.70;99.90;;;4.16;87.22;100777.44;4150704;28;20418;-74
2020/12/09 02:56:37;;;;;;;6.82;3.15;;;4.60;99.90;;;4.21;87.73;100775.34;4150634;28;20115;-74
2020/12/09 02:58:38;;;;;;;6.50;3.80;;;4.70;99.90;;;4.22;86.82;100769.16;4137310;28;20607;-74
2020/12/09 03:00:39;;;;;;;5.32;3.58;;;4.70;99.90;;;4.32;86.76;100778.81;4151632;28;20022;-74
2020/12/09 03:02:41;;;;;;;7.47;3.42;;;4.70;99.90;;;4.34;86.61;100778.66;4166899;28;20036;-74
2020/12/09 03:04:42;;;;;;;6.63;3.25;;;4.70;99.90;;;4.44;86.37;100771.81;4151846;28;20066;-74
2020/12/09 03:06:43;;;;;;;4.75;3.38;;;4.80;99.90;;;4.31;86.40;100771.91;4151678;28;20508;-74
2020/12/09 03:08:44;;;;;;;9.88;3.65;;;4.80;99.90;;;4.30;87.15;100772.84;4137492;28;20034;-74
2020/12/09 03:10:44;;;;;;;11.00;3.50;;;4.80;99.90;;;4.44;86.43;100769.22;4150632;28;20050;-74
2020/12/09 03:12:45;;;;;;;4.68;3.45;;;4.90;99.90;;;4.63;85.64;100792.97;4150450;28;20042;-74
2020/12/09 03:14:46;;;;;;;5.25;3.22;;;4.90;99.90;;;4.68;84.97;100777.78;4151662;28;20061;-74
2020/12/09 03:16:47;;;;;;;7.85;3.55;;;5.00;99.90;;;4.73;85.34;100777.44;4166627;28;20029;-74
2020/12/09 03:18:48;;;;;;;5.13;3.00;;;5.00;99.90;;;4.68;84.96;100774.34;4151569;28;20065;-74
2020/12/09 03:20:49;;;;;;;6.65;2.75;;;5.10;99.90;;;4.78;84.86;100778.72;4151672;28;20101;-74
2020/12/09 03:22:50;;;;;;;5.03;3.08;;;5.10;99.90;;;4.71;84.96;100769.72;4166608;28;20072;-74
2020/12/09 03:24:51;;;;;;;5.00;3.08;;;5.10;99.90;;;4.72;84.47;100773.97;4150405;28;20076;-74
2020/12/09 03:26:52;;;;;;;5.22;3.13;;;5.10;99.90;;;4.71;85.77;100776.72;4140634;28;20030;-74
2020/12/09 03:28:54;;;;;;;5.03;2.70;;;5.10;99.90;;;4.73;85.69;100785.25;4166621;28;20076;-74
2020/12/09 03:30:55;;;;;;;3.80;3.03;;;5.20;99.90;;;4.67;85.35;100777.91;4166376;28;20037;-74
2020/12/09 03:32:56;;;;;;;4.53;2.80;;;5.20;99.90;;;4.72;84.64;100778.41;4149196;28;20049;-74
2020/12/09 03:34:57;;;;;;;5.78;3.63;;;5.20;99.90;;;4.64;84.23;100775.50;4154648;28;20120;-74
2020/12/09 03:36:58;;;;;;;7.05;3.10;;;5.10;99.90;;;4.50;84.67;100779.19;4154580;28;20025;-74
2020/12/09 03:38:58;;;;;;;4.82;3.13;;;5.10;99.90;;;4.54;84.63;100787.63;4169646;28;20037;-74
2020/12/09 03:40:59;;;;;;;4.95;3.53;;;5.10;99.90;;;4.44;85.91;100775.28;4153235;28;20080;-74
2020/12/09 03:43:00;;;;;;;6.05;3.25;;;5.00;99.90;;;4.41;86.22;100785.09;4153236;28;20406;-74
2020/12/09 03:45:01;;;;;;;5.60;3.40;;;5.00;99.90;;;4.47;86.49;100798.53;4153341;28;20021;-74
2020/12/09 03:47:05;;;;;;;6.57;2.88;;;5.00;99.90;;;4.66;85.84;100789.31;4169179;28;20029;-74
2020/12/09 03:49:06;;;;;;;4.75;2.83;;;5.00;99.90;;;4.68;85.45;100785.63;4156839;28;20021;-74
2020/12/09 03:51:07;;;;;;;5.03;2.92;;;5.10;99.90;;;4.77;85.30;100789.31;4169468;28;20460;-74
2020/12/09 03:53:08;;;;;;;4.22;2.90;;;5.10;99.90;;;4.75;84.98;100778.16;4153219;28;20021;-74
2020/12/09 03:55:09;;;;;;;4.45;2.83;;;5.20;99.90;;;4.83;85.07;100783.63;4150136;28;20116;-74
2020/12/09 03:57:10;;;;;;;5.15;2.33;;;5.20;99.90;;;4.69;85.96;100784.66;4153072;28;20141;-74
2020/12/09 03:59:11;;;;;;;8.35;2.70;;;5.30;99.90;;;4.72;85.86;100788.84;4142369;28;20065;-74
2020/12/09 04:01:12;;;;;;;4.68;2.53;;;5.30;99.90;;;4.48;86.88;100774.06;4169043;28;20022;-74
2020/12/09 04:03:13;;;;;;;4.13;2.35;;;5.30;99.90;;;4.79;86.21;100782.19;4152868;28;20057;-74
2020/12/09 04:05:14;;;;;;;6.40;2.78;;;5.40;99.90;;;4.88;86.08;100778.84;4153936;28;20022;-74
2020/12/09 04:07:15;;;;;;;4.47;3.05;;;5.40;99.90;;;4.85;85.72;100784.31;4169264;28;20172;-74
2020/12/09 04:09:15;;;;;;;7.25;2.65;;;5.50;99.90;;;4.70;86.30;100778.50;4152978;28;20029;-74
2020/12/09 04:11:16;;;;;;;6.78;2.90;;;5.40;99.90;;;4.78;86.19;100791.78;4152785;28;20501;-74
2020/12/09 04:13:17;;;;;;;4.57;2.60;;;5.40;99.90;;;4.60;87.00;100776.72;4168869;28;20076;-74
2020/12/09 04:15:18;;;;;;;7.28;2.80;;;5.50;99.90;;;4.84;86.30;100790.50;4153745;28;20574;-74
2020/12/09 04:17:20;;;;;;;8.93;3.60;;;5.40;99.90;;;4.78;86.53;100785.75;4169080;28;20132;-74
2020/12/09 04:19:21;;;;;;;6.15;3.10;;;5.40;99.90;;;4.82;85.82;100784.56;4168909;28;20037;-74
2020/12/09 04:21:22;;;;;;;6.85;2.95;;;5.40;99.90;;;4.96;84.86;100793.00;4168830;28;20021;-74
2020/12/09 04:23:23;;;;;;;6.25;2.70;;;5.40;99.90;;;4.94;84.76;100787.06;4136307;28;20092;-74
2020/12/09 04:25:23;;;;;;;6.63;2.88;;;5.40;99.90;;;5.14;84.12;100795.94;4153847;28;20026;-74
2020/12/09 04:27:25;;;;;;;6.55;2.75;;;5.40;99.90;;;5.10;84.54;100791.09;4169024;28;20064;-74
2020/12/09 04:29:25;;;;;;;7.28;2.58;;;5.50;99.90;;;5.13;84.56;100785.63;4152425;28;20029;-74
2020/12/09 04:31:26;;;;;;;6.13;2.60;;;5.50;99.90;;;5.24;83.32;100783.84;4153490;28;20054;-74
2020/12/09 04:33:29;;;;;;;4.50;2.70;;;5.50;99.90;;;5.19;83.28;100780.75;4167483;28;20080;-74
2020/12/09 04:35:30;;;;;;;6.85;2.85;;;5.60;99.90;;;5.10;83.93;100778.88;4168747;28;20029;-74
2020/12/09 04:37:31;;;;;;;6.03;2.25;;;5.50;99.90;;;5.10;84.08;100786.72;4153738;28;20371;-74
2020/12/09 04:39:32;;;;;;;7.20;2.50;;;5.50;99.90;;;5.02;84.45;100784.69;4152274;28;20525;-74
2020/12/09 04:41:33;;;;;;;6.63;2.60;;;5.50;99.90;;;4.91;84.47;100797.75;4153596;28;20026;-74
2020/12/09 04:43:34;;;;;;;5.35;2.50;;;5.40;99.90;;;4.86;84.81;100793.84;4153571;28;20033;-74
2020/12/09 04:45:35;;;;;;;7.10;2.90;;;5.40;99.90;;;4.77;85.16;100790.16;4167356;28;20021;-74
2020/12/09 04:47:45;;;;;;;4.10;2.70;;;5.40;99.90;;;4.77;85.01;100776.25;4168439;28;20061;-74
2020/12/09 04:49:48;;;;;;;6.05;2.83;;;5.30;99.90;;;4.68;85.55;100779.56;4153507;28;20068;-74
2020/12/09 04:52:43;;;;;;;8.88;3.33;;;5.30;99.90;;;4.49;86.47;100785.34;4168666;28;20531;-74
2020/12/09 04:54:47;;;;;;;6.30;2.63;;;5.20;99.90;;;4.44;86.97;100777.03;4147033;28;20029;-74
2020/12/09 04:56:55;;;;;;;10.10;3.03;;;5.20;99.90;;;4.57;86.48;100782.97;4168376;28;20595;-74
2020/12/09 04:58:58;;;;;;;7.40;2.88;;;5.20;99.90;;;4.68;85.85;100777.78;4154993;28;20038;-74
2020/12/09 05:01:14;;;;;;;5.50;2.53;;;5.10;99.90;;;4.65;86.00;100777.19;4151438;28;20124;-74
2020/12/09 05:03:19;;;;;;;6.40;2.78;;;5.10;99.90;;;4.56;86.38;100775.28;4168196;28;20029;-74
2020/12/09 05:05:23;;;;;;;3.75;2.50;;;5.10;99.90;;;4.58;86.23;100765.53;4151900;28;20026;-74
2020/12/09 05:07:30;;;;;;;8.18;3.55;;;5.10;99.90;;;4.58;85.66;100775.97;4153199;28;20370;-74
2020/12/09 05:09:44;;;;;;;5.60;3.45;;;5.00;99.90;;;4.46;85.92;100782.97;4167654;28;20037;-74
2020/12/09 05:11:47;;;;;;;6.17;2.40;;;5.00;99.90;;;4.47;85.99;100774.19;4168115;28;20437;-74
2020/12/09 05:13:53;;;;;;;5.22;2.38;;;5.00;99.90;;;4.56;84.96;100775.28;4168106;28;20288;-74
2020/12/09 05:15:59;;;;;;;7.90;2.47;;;5.00;99.90;;;4.57;84.56;100779.56;4167976;28;20033;-74
2020/12/09 05:18:10;;;;;;;7.00;3.22;;;5.00;99.90;;;4.50;84.80;100781.81;4168033;28;20030;-74
2020/12/09 05:20:11;;;;;;;9.20;2.90;;;4.90;99.90;;;4.35;85.72;100786.41;4167994;28;20041;-74
2020/12/09 05:22:21;;;;;;;7.50;3.63;;;4.90;99.90;;;4.28;86.30;100792.19;4153020;28;20022;-74
2020/12/09 05:24:22;;;;;;;6.82;3.33;;;4.80;99.90;;;4.47;86.02;100797.72;4152887;28;20029;-74
2020/12/09 05:26:33;;;;;;;7.10;3.33;;;4.80;99.90;;;4.43;85.35;100789.25;4168314;28;20103;-74
2020/12/09 05:28:34;;;;;;;8.77;3.72;;;4.80;99.90;;;4.50;84.81;100794.03;4168160;28;20036;-74
2020/12/09 05:30:52;;;;;;;8.50;3.45;;;4.80;99.90;;;4.48;84.43;100800.19;4167787;28;20025;-74
2020/12/09 05:32:54;;;;;;;9.52;2.83;;;4.80;99.90;;;4.41;85.09;100791.16;4166416;28;20030;-74
2020/12/09 05:34:55;;;;;;;7.32;2.90;;;4.80;99.90;;;4.41;85.42;100795.56;4152817;28;20022;-75
2020/12/09 05:37:03;;;;;;;5.78;3.10;;;4.80;99.90;;;4.45;85.16;100795.19;4167826;28;20053;-74
2020/12/09 05:39:06;;;;;;;7.88;2.75;;;4.80;99.90;;;4.46;84.89;100802.09;4167579;28;20598;-74
2020/12/09 05:41:13;;;;;;;5.38;2.88;;;4.80;99.90;;;4.35;84.55;100781.19;4152775;28;20030;-74
2020/12/09 05:43:17;;;;;;;6.47;2.45;;;4.70;99.90;;;4.34;85.51;100792.56;4152621;28;20018;-74
2020/12/09 05:45:22;;;;;;;5.72;2.40;;;4.80;99.90;;;4.33;85.67;100792.69;4167463;28;20083;-74
2020/12/09 05:47:23;;;;;;;9.70;2.38;;;4.70;99.90;;;4.18;87.33;100786.00;4138636;28;20096;-74
2020/12/09 05:49:31;;;;;;;10.77;3.17;;;4.80;99.90;;;4.21;87.47;100780.56;4151367;28;20557;-74
2020/12/09 05:51:32;;;;;;;7.50;2.95;;;4.70;99.90;;;4.28;87.22;100785.19;4151393;28;20113;-74
2020/12/09 05:53:35;;;;;;;9.98;2.92;;;4.80;99.90;;;4.32;87.13;100798.84;4167407;28;20029;-74
2020/12/09 05:55:36;;;;;;;9.65;2.80;;;4.80;99.90;;;4.20;87.99;100789.31;4152436;28;20057;-74
2020/12/09 05:57:37;;;;;;;10.05;2.88;;;4.80;99.90;;;4.36;86.86;100798.50;4147324;28;20064;-74
2020/12/09 05:59:46;;;;;;;7.20;2.85;;;4.80;99.90;;;4.56;85.82;100806.63;4159327;28;20057;-74
2020/12/09 06:01:47;;;;;;;5.72;2.58;;;4.90;99.90;;;4.39;87.11;100806.09;4166403;28;20025;-74
2020/12/09 06:03:56;;;;;;;10.43;2.60;;;4.90;99.90;;;4.47;87.14;100809.00;4152111;28;20022;-74
2020/12/09 06:06:19;;;;;;;10.38;3.42;;;4.90;99.90;;;4.58;85.48;100817.78;4167466;28;20493;-74
2020/12/09 06:08:45;;;;;;;7.18;2.53;;;4.80;99.90;;;4.42;86.63;100824.16;4166760;28;20017;-74
2020/12/09 06:11:00;;;;;;;8.65;2.70;;;4.90;99.90;;;4.41;87.01;100819.91;4167285;28;20067;-74
2020/12/09 06:13:02;;;;;;;8.93;3.42;;;4.90;99.90;;;4.32;86.96;100825.81;4167185;28;20057;-74
2020/12/09 06:15:17;;;;;;;8.45;3.60;;;4.80;99.90;;;4.40;87.25;100825.22;4151717;28;20034;-74
2020/12/09 06:17:18;;;;;;;7.70;3.15;;;5.10;99.90;;;4.42;86.67;100826.75;4166984;28;20026;-74
2020/12/09 06:19:19;;;;;;;7.88;3.33;;;4.90;99.90;;;4.57;85.35;100844.88;4134427;28;20038;-74
2020/12/09 06:21:22;;;;;;;8.38;2.70;;;4.90;99.90;;;4.56;85.37;100832.75;4150818;28;20555;-74
2020/12/09 06:23:27;;;;;;;8.32;2.90;;;4.90;99.90;;;4.49;85.42;100840.19;4150653;28;20029;-74
2020/12/09 06:25:28;;;;;;;8.25;2.90;;;4.90;99.90;;;4.58;85.38;100841.28;4166694;28;20021;-74
2020/12/09 06:27:37;;;;;;;8.95;2.60;;;4.90;99.90;;;4.51;85.82;100833.06;4167187;28;20389;-74
2020/12/09 06:29:38;;;;;;;10.27;3.95;;;4.90;99.90;;;4.46;86.95;100832.59;4166901;28;20089;-74
2020/12/09 06:31:39;;;;;;;10.77;3.75;;;4.90;99.90;;;4.52;86.43;100841.75;4150317;28;20034;-74
2020/12/09 06:33:46;;;;;;;7.22;2.50;;;4.90;99.90;;;4.47;86.79;100845.56;4166279;28;20037;-74
2020/12/09 06:36:13;;;;;;;12.05;2.63;;;5.00;99.90;;;4.47;87.10;100840.34;4151846;28;20489;-73
2020/12/09 06:38:15;;;;;;;10.93;2.63;;;4.90;99.90;;;4.72;86.10;100854.16;4151874;28;20448;-73
2020/12/09 06:40:16;;;;;;;5.63;2.85;;;5.10;99.90;;;4.67;86.41;100857.13;4166938;28;20037;-73
2020/12/09 06:42:24;;;;;;;5.85;2.70;;;5.20;99.90;;;4.64;86.23;100846.06;4151630;28;20104;-74
2020/12/09 06:44:29;;;;;;;9.65;2.60;;;5.20;99.90;;;4.62;86.32;100851.41;4167214;28;20056;-74
2020/12/09 06:46:50;;;;;;;8.27;2.80;;;5.20;99.90;;;4.73;84.71;100845.34;4166369;28;20095;-74
2020/12/09 06:48:51;;;;;;;7.20;3.00;;;5.20;99.90;;;4.61;84.81;100843.66;4166500;28;20037;-74
2020/12/09 06:50:52;;;;;;;9.23;3.97;;;5.20;99.90;;;4.50;85.76;100847.09;4167029;28;20374;-74
2020/12/09 06:53:10;;;;;;;6.72;3.05;;;5.10;99.90;;;4.42;85.48;100845.03;4167015;28;20034;-74
2020/12/09 06:55:19;;;;;;;8.13;3.25;;;5.00;99.90;;;4.48;85.42;100851.59;4164510;28;20048;-74
2020/12/09 06:57:29;;;;;;;6.85;2.85;;;5.00;99.90;;;4.44;85.85;100845.78;4147883;28;20523;-74
2020/12/09 06:59:30;;;;;;;8.52;2.97;;;5.00;99.90;;;4.36;85.65;100829.03;4157184;28;20030;-74
2020/12/09 07:01:51;;;;;;;7.82;3.70;;;4.90;99.90;;;4.51;85.19;100847.94;4166401;28;20065;-74
2020/12/09 07:03:52;;;;;;;10.27;3.47;;;5.00;99.90;;;4.43;85.58;100844.09;4150418;28;20057;-74
2020/12/09 07:05:53;;;;;;;9.57;3.65;;;5.00;99.90;;;4.41;86.33;100845.19;4166855;28;20030;-74
2020/12/09 07:08:05;;;;;;;13.93;4.70;;;5.00;99.90;;;4.59;85.02;100848.19;4166962;28;20492;-74
2020/12/09 07:10:20;;;;;;;13.93;5.72;;;5.10;99.90;;;4.63;85.15;100857.47;4169986;28;20041;-74
2020/12/09 07:12:22;;;;;;;12.70;5.47;;;5.20;99.90;;;4.56;85.84;100859.72;4154828;28;20109;-74
2020/12/09 07:14:23;;;;;;;10.02;4.70;;;5.30;99.90;;;4.52;86.23;100853.03;4170115;28;20033;-74
2020/12/09 07:16:30;;;;;;;10.20;4.38;;;5.30;99.90;;;4.69;85.22;100865.66;4169749;28;20029;-74
2020/12/09 07:18:38;;;;;;;13.23;5.63;;;5.40;99.90;;;4.74;84.69;100860.09;4169964;28;20037;-74
2020/12/09 07:20:40;;;;;;;13.85;6.28;;;5.40;99.90;;;4.92;84.05;100862.16;4152906;28;20049;-74
2020/12/09 07:22:41;;;;;;;14.90;6.28;;;5.50;99.90;;;4.70;85.18;100864.72;4149640;28;20030;-74
2020/12/09 07:24:43;;;;;;;13.77;6.40;;;5.50;99.90;;;4.63;85.42;100862.69;4169595;28;20403;-74
2020/12/09 07:26:52;;;;;;;15.57;6.15;;;5.50;99.90;;;4.71;85.29;100868.16;4153554;28;20468;-74
2020/12/09 07:28:53;;;;;;;16.35;5.65;;;5.50;99.90;;;4.75;85.02;100859.16;4153471;28;20061;-74
2020/12/09 07:31:02;;;;;;;13.30;5.00;;;5.60;99.90;;;4.67;84.99;100867.56;4153087;28;20037;-74
2020/12/09 07:33:03;;;;;;;13.63;4.72;;;5.50;99.90;;;4.78;84.61;100862.34;4149624;28;20025;-74
2020/12/09 07:35:12;;;;;;;13.55;4.90;;;5.50;99.90;;;4.83;83.83;100867.25;4154694;28;20059;-74
2020/12/09 07:37:20;;;;;;;12.25;4.50;;;5.60;99.90;;;4.80;84.00;100867.47;4169652;28;20087;-74
2020/12/09 07:39:32;;;;;;;12.02;4.75;;;5.50;99.90;;;4.83;84.26;100862.03;4154237;28;20072;-74
2020/12/09 07:41:44;;;;;;;11.55;4.28;;;5.60;99.90;;;4.77;84.04;100863.31;4169478;28;20029;-74
2020/12/09 07:43:49;;;;;;;9.23;4.22;;;5.60;99.90;;;4.96;84.29;100867.97;4154465;28;20025;-74
2020/12/09 07:45:50;;;;;;;10.10;4.57;;;5.60;99.90;;;4.89;84.15;100866.78;4153884;28;20030;-74
2020/12/09 07:48:16;;;;;;;15.48;7.22;;;5.60;99.90;;;4.89;83.48;100864.16;4154290;28;20026;-74
2020/12/09 07:50:17;;;;;;;18.83;6.60;;;5.60;99.90;;;4.90;83.38;100863.19;4168387;28;20518;-73
2020/12/09 07:52:28;;;;;;;11.20;5.30;;;5.60;99.90;;;4.85;83.83;100868.78;4153939;28;20065;-74
2020/12/09 07:54:29;;;;;;;16.58;5.25;;;5.50;99.90;;;4.90;83.35;100871.03;4154221;28;20045;-74
2020/12/09 07:56:30;;;;;;;14.13;5.82;;;5.50;99.90;;;4.88;83.06;100875.56;4169138;28;20120;-74
2020/12/09 07:58:31;;;;;;;12.60;6.43;;;5.40;99.90;;;4.84;83.60;100877.56;4140414;28;20023;-74
2020/12/09 08:00:47;;;;;;;13.18;5.25;;;5.40;99.90;;;4.85;82.96;100874.00;4152716;28;20109;-76
2020/12/09 08:02:48;;;;;;;13.50;5.50;;;5.40;99.90;;;4.94;81.68;100875.09;4168132;28;20024;-74
2020/12/09 08:05:16;;;;;;;10.38;5.50;;;5.40;99.90;;;4.73;82.85;100868.88;4154067;28;20519;-75
2020/12/09 08:07:21;;;;;;;11.35;4.88;;;5.30;99.90;;;4.64;83.72;100880.03;4149517;28;20026;-75
2020/12/09 08:09:22;;;;;;;14.63;5.20;;;5.20;99.90;;;4.57;83.79;100881.44;4168290;28;20041;-73
2020/12/09 08:11:22;;;;;;;12.95;4.80;;;5.10;99.90;;;4.51;83.47;100866.22;4152816;28;20244;-75
2020/12/09 08:13:26;;;;;;;14.13;4.20;;;4.90;99.90;;;4.72;82.46;100890.75;4168992;28;20072;-75
2020/12/09 08:15:27;;;;;;;8.80;4.10;;;5.10;99.90;;;4.64;82.96;100888.69;4153672;28;20079;-75
2020/12/09 08:17:29;;;;;;;10.52;3.90;;;5.00;99.90;;;4.66;82.92;100891.22;4168949;28;20052;-75
2020/12/09 08:19:30;;;;;;;9.95;4.00;;;5.00;99.90;;;4.57;83.31;100884.88;4167956;28;20029;-76
2020/12/09 08:21:31;;;;;;;10.50;4.32;;;5.10;99.90;;;4.45;83.75;100878.78;4151927;28;20041;-75
2020/12/09 08:23:47;;;;;;;6.75;3.50;;;5.00;99.90;;;4.42;83.61;100879.00;4153728;28;20034;-75
2020/12/09 08:25:53;;;;;;;6.47;4.90;;;5.00;99.90;;;4.44;83.34;100895.41;4165808;28;20033;-73
2020/12/09 08:28:03;;;;;;;10.68;4.55;;;4.90;99.90;;;4.43;82.84;100906.78;4151800;28;20021;-73
2020/12/09 08:30:26;;;;;;;7.28;4.20;;;4.90;99.90;;;4.40;82.47;100900.97;4167178;28;20043;-72
2020/12/09 08:32:27;;;;;;;10.70;4.95;;;4.80;99.90;;;4.31;83.02;100891.19;4151589;28;20106;-72
2020/12/09 08:34:28;;;;;;;10.35;4.43;;;4.80;99.90;;;4.24;82.90;100890.78;4151862;28;20033;-72
2020/12/09 08:36:31;;;;;;;7.13;4.00;;;4.70;99.90;;;4.19;82.72;100877.25;4152389;28;20113;-72
2020/12/09 08:38:37;;;;;;;6.82;3.45;;;4.70;99.90;;;4.18;83.46;100878.19;4153279;28;20045;-72
2020/12/09 08:40:38;;;;;;;10.02;5.28;;;4.70;99.90;;;4.36;83.78;100887.28;4153298;28;20053;-72
2020/12/09 08:42:59;;;;;;;6.22;4.32;;;4.80;99.90;;;4.45;83.56;100888.38;4153028;28;20080;-72
2020/12/09 08:44:59;;;;;;;8.50;4.65;;;4.80;99.90;;;4.44;84.19;100895.41;4167946;28;20116;-72